Time;durP1;ratioP1;P1;durP2;ratioP2;P2;SDS_P1;SDS_P2;PMS_P1;PMS_P2;Temp;Humidity;BMP_temperature;BMP_pressure;BME280_temperature;BME280_humidity;BME280_pressure;Samples;Min_cycle;Max_cycle;Signal;HPM_P1;HPM_P2
2023/03/28 00:01:01;;;;;;;31.20;16.00;;;;;;;-0.70;73.96;100265.27;105181;1264;101210;-78
2023/03/28 00:03:46;;;;;;;31.00;15.20;;;;;;;-0.72;74.03;100264.93;105269;1264;99172;-79
2023/03/28 00:06:32;;;;;;;29.80;13.50;;;;;;;-0.74;74.03;100267.52;105011;1270;98580;-80
2023/03/28 00:09:18;;;;;;;32.00;14.70;;;;;;;-0.77;73.88;100267.20;105513;1265;98043;-79
2023/03/28 00:12:05;;;;;;;31.00;14.10;;;;;;;-0.81;73.83;100265.74;105621;1265;98495;-79
2023/03/28 00:14:50;;;;;;;34.40;14.70;;;;;;;-0.83;73.98;100261.95;105354;1264;101355;-79
2023/03/28 00:17:35;;;;;;;29.30;13.60;;;;;;;-0.85;74.09;100253.80;105627;1266;100411;-79
2023/03/28 00:20:21;;;;;;;29.20;13.70;;;;;;;-0.89;73.85;100253.09;105494;1270;98301;-79
2023/03/28 00:23:08;;;;;;;28.50;13.90;;;;;;;-0.92;73.78;100252.17;105609;1268;97971;-78
2023/03/28 00:25:55;;;;;;;32.50;15.20;;;;;;;-0.96;73.82;100250.70;106993;1264;98495;-78
2023/03/28 00:28:41;;;;;;;33.40;15.70;;;;;;;-0.97;74.01;100246.08;105222;1263;101384;-79
2023/03/28 00:31:28;;;;;;;31.20;13.80;;;;;;;-0.99;74.07;100243.06;105548;1268;99210;-79
2023/03/28 00:34:15;;;;;;;36.80;18.50;;;;;;;-1.02;74.10;100243.29;105412;1264;98038;-78
2023/03/28 00:37:04;;;;;;;46.30;23.90;;;;;;;-1.05;74.11;100238.77;105323;1271;97940;-78
2023/03/28 00:39:49;;;;;;;38.40;18.40;;;;;;;-1.05;74.08;100239.52;105578;1265;98771;-78
2023/03/28 00:42:40;;;;;;;31.30;16.20;;;;;;;-1.06;73.95;100237.83;105454;1266;101980;-79
2023/03/28 00:45:26;;;;;;;29.90;14.30;;;;;;;-1.08;74.18;100240.97;105633;1265;99116;-79
2023/03/28 00:48:14;;;;;;;32.10;13.90;;;;;;;-1.10;74.45;100237.79;105512;1268;99005;-78
2023/03/28 00:51:02;;;;;;;26.50;12.00;;;;;;;-1.10;74.60;100239.63;105618;1268;98074;-79
2023/03/28 00:53:51;;;;;;;24.70;11.70;;;;;;;-1.14;74.63;100241.11;105477;1269;98058;-80
2023/03/28 00:56:40;;;;;;;29.30;13.00;;;;;;;-1.19;74.74;100237.19;105464;1269;102663;-78
2023/03/28 00:59:32;;;;;;;26.10;12.50;;;;;;;-1.25;74.89;100234.50;105556;1265;99107;-79
2023/03/28 01:02:18;;;;;;;26.80;12.60;;;;;;;-1.29;75.22;100235.98;105583;1269;97961;-79
2023/03/28 01:05:04;;;;;;;20.80;12.20;;;;;;;-1.31;75.51;100241.07;105528;1270;98090;-79
2023/03/28 01:07:56;;;;;;;33.40;14.80;;;;;;;-1.35;75.69;100246.30;105709;1267;98001;-79
2023/03/28 01:10:43;;;;;;;28.40;14.70;;;;;;;-1.39;75.85;100247.47;105581;1264;102645;-78
2023/03/28 01:13:32;;;;;;;30.00;14.50;;;;;;;-1.42;75.94;100244.04;105560;1263;99106;-78
2023/03/28 01:16:21;;;;;;;27.10;14.60;;;;;;;-1.45;75.87;100241.13;105636;1264;98446;-78
2023/03/28 01:19:20;;;;;;;28.10;13.70;;;;;;;-1.48;75.81;100233.89;105725;1268;97776;-79
2023/03/28 01:22:42;;;;;;;26.80;13.80;;;;;;;-1.51;75.74;100231.31;105563;1268;98513;-79
2023/03/28 01:25:52;;;;;;;29.60;13.70;;;;;;;-1.56;75.87;100230.48;105513;1270;101987;-78
2023/03/28 01:29:00;;;;;;;26.40;13.70;;;;;;;-1.60;75.95;100229.89;105346;1268;100354;-78
2023/03/28 01:32:30;;;;;;;26.20;13.50;;;;;;;-1.65;76.30;100224.33;105259;1271;99082;-79
2023/03/28 01:35:27;;;;;;;27.20;13.80;;;;;;;-1.65;76.52;100221.88;105476;1268;97972;-80
2023/03/28 01:38:33;;;;;;;26.60;12.90;;;;;;;-1.65;76.47;100221.88;105554;1268;97875;-79
2023/03/28 01:41:31;;;;;;;29.20;14.00;;;;;;;-1.67;76.52;100217.98;105462;1269;101405;-78
2023/03/28 01:44:30;;;;;;;26.40;13.80;;;;;;;-1.69;76.41;100222.66;105127;1269;99776;-78
2023/03/28 01:47:29;;;;;;;26.10;12.40;;;;;;;-1.72;76.37;100225.23;105002;1268;98956;-78
2023/03/28 01:50:37;;;;;;;28.00;13.40;;;;;;;-1.73;76.52;100223.91;105102;1264;97987;-78
2023/03/28 01:53:43;;;;;;;25.70;12.60;;;;;;;-1.74;76.68;100216.81;105255;1269;97860;-78
2023/03/28 01:56:52;;;;;;;29.90;13.80;;;;;;;-1.73;76.82;100215.48;105161;1269;101382;-77
2023/03/28 02:00:05;;;;;;;26.90;14.60;;;;;;;-1.72;77.00;100216.50;105675;1268;100770;-78
2023/03/28 02:03:20;;;;;;;31.90;14.20;;;;;;;-1.71;77.25;100211.11;105314;1266;98096;-78
2023/03/28 02:06:38;;;;;;;22.80;11.60;;;;;;;-1.67;77.59;100211.85;105105;1266;98456;-78
2023/03/28 02:09:31;;;;;;;25.20;11.90;;;;;;;-1.63;77.79;100211.00;105181;1268;98551;-79
2023/03/28 02:12:32;;;;;;;26.10;11.60;;;;;;;-1.61;77.84;100215.23;106064;1272;101464;-79
2023/03/28 02:15:28;;;;;;;25.10;12.60;;;;;;;-1.59;78.07;100214.44;105519;1264;99586;-78
2023/03/28 02:18:37;;;;;;;29.70;12.40;;;;;;;-1.57;78.26;100205.14;106391;1266;98067;-79
2023/03/28 02:22:02;;;;;;;25.80;12.80;;;;;;;-1.52;78.38;100200.56;105498;1269;98960;-79
2023/03/28 02:25:17;;;;;;;27.20;12.80;;;;;;;-1.48;78.35;100201.98;105188;1264;98435;-78
2023/03/28 02:28:23;;;;;;;23.80;11.80;;;;;;;-1.44;78.29;100197.50;105569;1266;101474;-78
2023/03/28 02:31:32;;;;;;;27.50;12.30;;;;;;;-1.41;78.24;100193.02;105423;1268;99107;-79
2023/03/28 02:34:17;;;;;;;23.90;11.70;;;;;;;-1.39;78.33;100187.64;105111;1271;99018;-78
2023/03/28 02:37:24;;;;;;;23.70;13.00;;;;;;;-1.37;78.53;100183.63;105109;1270;97939;-79
2023/03/28 02:40:12;;;;;;;30.20;12.90;;;;;;;-1.35;78.57;100180.33;105034;1274;98042;-79
2023/03/28 02:43:38;;;;;;;29.80;13.30;;;;;;;-1.34;78.60;100182.13;105602;1264;102038;-79
2023/03/28 02:47:02;;;;;;;29.20;13.00;;;;;;;-1.33;78.75;100186.07;105516;1268;99358;-79
2023/03/28 02:50:27;;;;;;;27.40;13.30;;;;;;;-1.32;78.97;100184.73;105230;1271;98072;-78
2023/03/28 02:53:36;;;;;;;28.10;13.10;;;;;;;-1.29;79.04;100180.34;105106;1268;97982;-78
2023/03/28 02:56:37;;;;;;;26.50;12.90;;;;;;;-1.26;79.19;100175.31;105426;1267;97888;-78
2023/03/28 02:59:37;;;;;;;29.80;14.40;;;;;;;-1.23;79.28;100170.75;105175;1272;102631;-78
2023/03/28 03:02:22;;;;;;;27.40;12.30;;;;;;;-1.21;79.30;100165.46;105169;1269;100369;-78
2023/03/28 03:05:09;;;;;;;26.70;12.20;;;;;;;-1.18;79.18;100168.75;105379;1270;98446;-78
2023/03/28 03:07:55;;;;;;;27.00;13.30;;;;;;;-1.16;79.35;100167.39;104899;1269;98768;-78
2023/03/28 03:10:42;;;;;;;26.10;12.10;;;;;;;-1.14;79.57;100162.79;105514;1264;98589;-78
2023/03/28 03:13:27;;;;;;;27.20;12.10;;;;;;;-1.12;79.55;100156.48;105612;1269;101367;-79
2023/03/28 03:16:13;;;;;;;26.00;13.00;;;;;;;-1.13;79.37;100165.34;105515;1266;99888;-79
2023/03/28 03:18:58;;;;;;;26.00;11.30;;;;;;;-1.13;79.25;100164.65;105559;1269;98463;-80
2023/03/28 03:21:43;;;;;;;19.50;10.10;;;;;;;-1.15;79.06;100166.95;105338;1271;98015;-79
2023/03/28 03:24:29;;;;;;;22.90;10.90;;;;;;;-1.19;78.89;100167.93;105473;1264;98581;-79
2023/03/28 03:27:19;;;;;;;21.80;10.70;;;;;;;-1.20;78.97;100164.02;105705;1268;111995;-80
2023/03/28 03:30:06;;;;;;;24.90;11.90;;;;;;;-1.21;79.09;100155.31;105252;1271;99271;-79
2023/03/28 03:33:04;;;;;;;23.30;11.60;;;;;;;-1.20;79.03;100147.00;105435;1270;99292;-79
2023/03/28 03:35:50;;;;;;;26.00;11.90;;;;;;;-1.17;79.04;100139.09;105419;1269;97978;-78
2023/03/28 03:38:36;;;;;;;25.30;11.70;;;;;;;-1.14;79.05;100134.44;105705;1266;98045;-79
2023/03/28 03:41:21;;;;;;;20.20;9.90;;;;;;;-1.11;79.11;100135.94;105016;1264;101419;-78
2023/03/28 03:44:07;;;;;;;22.20;11.10;;;;;;;-1.08;79.22;100132.58;105061;1265;99233;-77
2023/03/28 03:46:53;;;;;;;22.70;10.50;;;;;;;-1.07;79.33;100123.39;104956;1270;97926;-79
2023/03/28 03:49:39;;;;;;;19.20;10.20;;;;;;;-1.07;79.41;100117.71;105093;1270;98117;-78
2023/03/28 03:52:25;;;;;;;23.40;11.40;;;;;;;-1.04;79.47;100114.71;104976;1266;98630;-78
2023/03/28 03:55:10;;;;;;;24.60;12.20;;;;;;;-1.02;79.68;100113.30;105037;1268;101421;-78
2023/03/28 03:57:58;;;;;;;20.80;10.90;;;;;;;-1.02;79.84;100114.12;105096;1271;100667;-79
2023/03/28 04:00:45;;;;;;;23.50;11.30;;;;;;;-1.00;80.03;100116.95;105030;1271;99014;-78
2023/03/28 04:03:43;;;;;;;21.20;10.30;;;;;;;-1.00;79.87;100128.20;105670;1270;97971;-78
2023/03/28 04:06:32;;;;;;;22.00;11.40;;;;;;;-1.04;79.85;100127.26;105100;1269;99369;-80
2023/03/28 04:09:26;;;;;;;25.70;12.30;;;;;;;-1.04;79.96;100123.23;105473;1264;102974;-79
2023/03/28 04:12:16;;;;;;;23.20;11.00;;;;;;;-1.03;79.98;100124.40;105432;1269;99082;-79
2023/03/28 04:15:07;;;;;;;20.10;10.30;;;;;;;-1.03;79.78;100122.65;105191;1275;97887;-79
2023/03/28 04:17:56;;;;;;;24.80;11.10;;;;;;;-1.05;79.60;100124.89;105211;1274;99308;-77
2023/03/28 04:20:48;;;;;;;21.30;10.70;;;;;;;-1.05;79.55;100127.16;105302;1266;98482;-77
2023/03/28 04:23:37;;;;;;;17.80;10.20;;;;;;;-1.05;79.50;100126.34;105249;1271;101338;-79
2023/03/28 04:26:26;;;;;;;22.40;11.10;;;;;;;-1.05;79.57;100128.44;105370;1269;99153;-79
2023/03/28 04:29:29;;;;;;;20.80;10.60;;;;;;;-1.06;79.59;100128.98;105166;1277;98532;-77
2023/03/28 04:32:34;;;;;;;23.10;11.80;;;;;;;-1.05;79.82;100127.73;105109;1279;97777;-78
2023/03/28 04:35:23;;;;;;;23.50;11.80;;;;;;;-1.04;79.87;100123.96;105848;1269;97874;-80
2023/03/28 04:38:10;;;;;;;22.10;11.70;;;;;;;-1.03;79.87;100122.68;106435;1270;101354;-80
2023/03/28 04:40:59;;;;;;;22.30;11.10;;;;;;;-1.01;80.03;100115.45;106047;1268;100572;-79
2023/03/28 04:44:05;;;;;;;24.10;12.70;;;;;;;-0.99;80.00;100115.64;105437;1264;98077;-80
2023/03/28 04:46:57;;;;;;;27.80;13.30;;;;;;;-0.95;80.23;100114.80;105432;1270;99356;-79
2023/03/28 04:49:43;;;;;;;27.90;12.60;;;;;;;-0.91;80.23;100114.98;105334;1273;98495;-79
2023/03/28 04:52:29;;;;;;;31.50;13.40;;;;;;;-0.87;80.33;100119.77;105181;1264;101390;-78
2023/03/28 04:55:16;;;;;;;22.40;12.50;;;;;;;-0.85;80.54;100123.63;105647;1277;100370;-78
2023/03/28 04:58:02;;;;;;;25.30;13.20;;;;;;;-0.82;81.06;100117.77;105627;1270;97887;-79
2023/03/28 05:00:48;;;;;;;24.20;13.30;;;;;;;-0.79;81.49;100120.14;105096;1264;97906;-77
2023/03/28 05:03:42;;;;;;;32.30;17.10;;;;;;;-0.73;81.97;100117.39;105345;1268;97921;-78
2023/03/28 05:06:29;;;;;;;29.30;15.40;;;;;;;-0.69;82.41;100122.27;105609;1270;101295;-79
2023/03/28 05:09:16;;;;;;;30.30;16.20;;;;;;;-0.66;82.73;100127.46;105326;1278;98967;-78
2023/03/28 05:12:02;;;;;;;31.40;14.30;;;;;;;-0.63;83.06;100130.58;105206;1270;98388;-78
2023/03/28 05:14:49;;;;;;;27.80;14.70;;;;;;;-0.61;83.19;100133.88;106817;1269;98126;-79
2023/03/28 05:17:35;;;;;;;25.80;13.60;;;;;;;-0.60;83.49;100132.55;105773;1268;98390;-80
2023/03/28 05:20:27;;;;;;;26.60;15.00;;;;;;;-0.60;83.78;100132.44;105911;1263;101476;-80
2023/03/28 05:23:16;;;;;;;30.60;15.70;;;;;;;-0.59;84.13;100132.88;105643;1264;99094;-80
2023/03/28 05:26:02;;;;;;;34.70;18.90;;;;;;;-0.56;84.35;100132.95;105665;1263;99033;-79
2023/03/28 05:28:49;;;;;;;37.30;20.90;;;;;;;-0.52;84.81;100137.89;105561;1269;97910;-79
2023/03/28 05:31:35;;;;;;;38.80;22.50;;;;;;;-0.50;85.02;100137.55;105157;1269;98508;-78
2023/03/28 05:34:34;;;;;;;43.60;24.40;;;;;;;-0.48;85.37;100136.10;105567;1264;101316;-78
2023/03/28 05:37:21;;;;;;;36.00;21.10;;;;;;;-0.43;85.76;100138.02;105579;1264;100441;-78
2023/03/28 05:40:10;;;;;;;35.60;21.70;;;;;;;-0.40;86.03;100138.27;105533;1264;97906;-78
2023/03/28 05:42:57;;;;;;;41.50;21.10;;;;;;;-0.38;86.41;100138.92;105652;1264;97893;-79
2023/03/28 05:45:45;;;;;;;39.60;22.40;;;;;;;-0.35;86.60;100141.83;105962;1269;99324;-79
2023/03/28 05:48:35;;;;;;;42.00;24.10;;;;;;;-0.31;86.87;100141.44;105681;1264;101457;-80
2023/03/28 05:51:21;;;;;;;43.60;23.80;;;;;;;-0.27;86.91;100144.10;105445;1263;99163;-79
2023/03/28 05:54:06;;;;;;;49.00;23.40;;;;;;;-0.23;87.22;100143.45;105337;1264;99257;-78
2023/03/28 05:56:52;;;;;;;35.70;20.10;;;;;;;-0.21;87.34;100145.38;105073;1264;97904;-78
2023/03/28 05:59:42;;;;;;;47.90;25.10;;;;;;;-0.18;87.58;100147.42;105441;1264;97892;-78
2023/03/28 06:02:29;;;;;;;45.50;28.40;;;;;;;-0.15;87.64;100149.63;105620;1270;101369;-79
2023/03/28 06:05:17;;;;;;;43.20;26.00;;;;;;;-0.12;87.88;100151.61;105508;1270;99119;-78
2023/03/28 06:08:03;;;;;;;36.90;23.80;;;;;;;-0.09;87.90;100152.41;105631;1264;97992;-79
2023/03/28 06:10:48;;;;;;;33.70;20.30;;;;;;;-0.04;87.99;100151.13;105390;1269;98024;-79
2023/03/28 06:13:45;;;;;;;31.20;18.40;;;;;;;0.02;88.08;100155.20;105702;1264;97983;-79
2023/03/28 06:16:32;;;;;;;31.60;19.10;;;;;;;0.08;88.25;100158.56;105474;1264;101486;-79
2023/03/28 06:19:18;;;;;;;32.90;18.70;;;;;;;0.13;88.23;100158.27;105295;1270;99097;-79
2023/03/28 06:22:07;;;;;;;34.70;20.60;;;;;;;0.18;88.22;100158.03;105242;1270;98416;-78
2023/03/28 06:24:53;;;;;;;29.20;18.10;;;;;;;0.22;88.10;100157.48;105481;1264;97993;-78
2023/03/28 06:27:44;;;;;;;30.60;18.60;;;;;;;0.28;88.26;100159.97;105205;1269;97993;-79
2023/03/28 06:30:30;;;;;;;30.00;17.70;;;;;;;0.34;88.26;100159.91;105332;1264;101422;-78
2023/03/28 06:33:17;;;;;;;25.00;16.10;;;;;;;0.41;88.45;100159.71;105275;1270;99129;-78
2023/03/28 06:36:02;;;;;;;24.40;15.50;;;;;;;0.46;88.21;100162.80;105519;1268;98495;-79
2023/03/28 06:38:52;;;;;;;24.80;13.30;;;;;;;0.50;88.18;100166.21;105566;1270;98073;-80
2023/03/28 06:41:37;;;;;;;27.00;13.40;;;;;;;0.56;88.30;100166.04;106316;1269;98070;-79
2023/03/28 06:44:23;;;;;;;22.30;13.90;;;;;;;0.63;88.33;100165.55;104961;1269;101371;-78
2023/03/28 06:47:28;;;;;;;24.10;12.90;;;;;;;0.71;88.39;100173.69;105149;1264;99903;-77
2023/03/28 06:50:14;;;;;;;22.10;11.70;;;;;;;0.79;88.61;100176.67;104959;1264;98462;-78
2023/03/28 06:53:09;;;;;;;21.30;12.40;;;;;;;0.85;88.25;100174.38;105296;1269;97909;-78
2023/03/28 06:55:55;;;;;;;18.70;11.40;;;;;;;0.90;88.07;100178.89;105243;1264;98541;-78
2023/03/28 06:58:41;;;;;;;21.40;12.30;;;;;;;0.96;88.43;100180.60;105248;1276;102642;-79
2023/03/28 07:01:29;;;;;;;20.20;11.50;;;;;;;1.03;88.17;100180.14;104848;1270;100092;-78
2023/03/28 07:04:21;;;;;;;20.60;11.10;;;;;;;1.08;88.14;100184.75;105132;1268;97980;-79
2023/03/28 07:07:08;;;;;;;18.90;10.20;;;;;;;1.14;88.02;100188.27;105160;1268;97903;-78
2023/03/28 07:09:54;;;;;;;17.20;10.50;;;;;;;1.22;88.14;100195.11;104843;1263;100341;-78
2023/03/28 07:12:39;;;;;;;20.40;11.20;;;;;;;1.32;88.07;100201.09;105074;1264;102626;-77
2023/03/28 07:15:25;;;;;;;14.80;9.60;;;;;;;1.38;87.48;100200.18;104831;1264;99124;-78
2023/03/28 07:18:11;;;;;;;17.20;10.50;;;;;;;1.43;87.19;100198.31;105129;1268;98035;-78
2023/03/28 07:20:57;;;;;;;14.10;8.30;;;;;;;1.51;87.38;100204.08;104922;1264;97968;-78
2023/03/28 07:23:45;;;;;;;15.70;9.40;;;;;;;1.60;87.15;100212.41;104878;1263;99669;-78
2023/03/28 07:26:32;;;;;;;16.70;9.60;;;;;;;1.71;87.12;100213.94;104954;1270;102719;-77
2023/03/28 07:29:17;;;;;;;11.70;8.20;;;;;;;1.81;86.94;100211.56;104818;1264;99150;-78
2023/03/28 07:32:03;;;;;;;13.80;9.00;;;;;;;1.87;86.34;100214.31;105058;1270;99036;-78
2023/03/28 07:34:48;;;;;;;12.40;8.30;;;;;;;1.87;85.79;100221.91;105470;1264;98002;-78
2023/03/28 07:37:40;;;;;;;12.30;8.20;;;;;;;1.85;85.53;100228.63;105343;1264;99254;-79
2023/03/28 07:40:35;;;;;;;13.90;8.40;;;;;;;1.85;85.33;100230.33;104940;1264;102077;-78
2023/03/28 07:43:21;;;;;;;12.20;7.80;;;;;;;1.91;85.32;100227.52;105243;1263;100141;-77
2023/03/28 07:46:10;;;;;;;12.00;7.80;;;;;;;2.04;85.74;100225.55;105115;1263;97985;-79
2023/03/28 07:48:55;;;;;;;13.70;7.60;;;;;;;2.23;85.91;100230.66;105146;1264;97895;-80
2023/03/28 07:51:40;;;;;;;11.10;6.70;;;;;;;2.34;85.17;100234.06;105306;1264;97993;-79
2023/03/28 07:54:27;;;;;;;7.50;6.00;;;;;;;2.31;84.10;100234.81;105351;1268;102355;-77
2023/03/28 07:57:13;;;;;;;9.70;7.00;;;;;;;2.29;83.78;100238.20;104960;1270;99194;-78
2023/03/28 08:00:11;;;;;;;12.40;6.50;;;;;;;2.27;83.67;100240.86;105108;1264;98616;-77
2023/03/28 08:03:01;;;;;;;9.30;6.80;;;;;;;2.24;83.64;100243.73;105252;1267;97909;-78
2023/03/28 08:05:53;;;;;;;8.40;6.40;;;;;;;2.20;83.32;100246.27;105280;1264;98019;-78
2023/03/28 08:08:40;;;;;;;8.40;5.80;;;;;;;2.16;83.22;100247.84;107679;1264;102528;-80
2023/03/28 08:11:36;;;;;;;8.60;6.40;;;;;;;2.17;83.09;100251.86;105375;1264;100903;-80
2023/03/28 08:14:21;;;;;;;8.40;5.90;;;;;;;2.20;83.10;100253.52;105731;1267;98082;-80
2023/03/28 08:17:08;;;;;;;7.90;6.20;;;;;;;2.22;83.02;100248.31;105244;1281;97912;-78
2023/03/28 08:19:55;;;;;;;9.10;6.90;;;;;;;2.27;83.24;100252.46;105699;1265;97912;-79
2023/03/28 08:22:46;;;;;;;8.10;6.30;;;;;;;2.29;82.90;100263.77;105594;1263;103049;-78
2023/03/28 08:26:06;;;;;;;8.50;6.20;;;;;;;2.16;82.65;100274.85;105587;1267;99832;-80
2023/03/28 08:28:53;;;;;;;8.50;6.50;;;;;;;1.98;83.19;100277.73;105350;1270;98290;-79
2023/03/28 08:31:39;;;;;;;10.40;7.40;;;;;;;1.83;83.74;100279.64;105106;1273;98073;-78
2023/03/28 08:34:29;;;;;;;7.80;6.70;;;;;;;1.75;84.56;100283.72;105080;1264;98000;-78
2023/03/28 08:37:16;;;;;;;8.90;7.50;;;;;;;1.68;84.88;100292.14;105117;1264;101356;-78
2023/03/28 08:40:09;;;;;;;11.50;7.60;;;;;;;1.58;84.77;100298.83;105228;1267;99676;-77
2023/03/28 08:43:24;;;;;;;10.00;8.20;;;;;;;1.45;85.00;100306.15;105107;1264;99027;-76
2023/03/28 08:46:15;;;;;;;11.70;8.20;;;;;;;1.33;85.39;100314.41;106786;1264;97903;-78
2023/03/28 08:49:05;;;;;;;15.20;9.80;;;;;;;1.21;85.66;100325.01;105495;1267;97946;-77
2023/03/28 08:51:57;;;;;;;15.80;10.20;;;;;;;1.05;85.86;100332.25;105033;1264;101455;-77
2023/03/28 08:54:48;;;;;;;15.90;11.50;;;;;;;0.93;85.87;100343.80;105081;1267;99071;-78
2023/03/28 08:57:35;;;;;;;18.50;11.60;;;;;;;0.89;85.54;100347.71;105421;1266;99013;-79
2023/03/28 09:00:36;;;;;;;18.30;10.90;;;;;;;0.87;85.26;100345.74;105422;1264;99321;-78
2023/03/28 09:03:23;;;;;;;16.30;10.90;;;;;;;0.89;85.14;100350.20;105346;1265;98413;-78
2023/03/28 09:06:28;;;;;;;;;;;;;;;0.92;84.74;100358.52;105647;1267;101377;-78
2023/03/28 09:09:17;;;;;;;;;;;;;;;0.91;83.96;100366.36;106794;1267;99159;-77
2023/03/28 09:12:10;;;;;;;12.50;7.50;;;;;;;0.92;83.54;100377.52;105385;1264;98914;-77
2023/03/28 09:15:06;;;;;;;12.40;8.30;;;;;;;0.96;83.26;100388.59;105446;1268;97887;-77
2023/03/28 09:18:30;;;;;;;13.00;7.20;;;;;;;1.05;82.84;100386.09;105534;1264;96140;-78
2023/03/28 09:21:36;;;;;;;14.90;7.10;;;;;;;1.18;81.88;100391.42;105024;1264;102566;-77
2023/03/28 09:24:25;;;;;;;11.90;6.80;;;;;;;1.25;81.65;100397.79;105287;1264;99168;-78
2023/03/28 09:27:36;;;;;;;8.80;6.00;;;;;;;1.28;81.47;100408.83;105252;1267;97961;-77
2023/03/28 09:30:28;;;;;;;9.20;5.60;;;;;;;1.19;80.25;100410.15;105043;1264;97820;-78
2023/03/28 09:33:26;;;;;;;6.90;4.70;;;;;;;1.07;80.30;100422.08;105076;1264;98594;-78
2023/03/28 09:36:23;;;;;;;6.20;4.40;;;;;;;1.03;80.06;100430.34;105455;1268;102181;-78
2023/03/28 09:39:35;;;;;;;9.00;5.60;;;;;;;1.03;79.84;100441.05;105442;1263;99229;-77
2023/03/28 09:42:57;;;;;;;6.90;4.30;;;;;;;1.09;79.56;100443.55;105240;1265;98931;-78
2023/03/28 09:46:04;;;;;;;5.90;4.30;;;;;;;1.17;79.45;100440.37;105320;1262;97962;-78
2023/03/28 09:49:23;;;;;;;6.40;4.10;;;;;;;1.26;78.92;100451.24;105157;1270;98525;-77
2023/03/28 09:52:16;;;;;;;5.10;3.70;;;;;;;1.31;77.97;100453.23;105554;1268;102085;-78
2023/03/28 09:55:01;;;;;;;7.00;3.50;;;;;;;1.38;77.30;100456.48;105248;1265;100568;-78
2023/03/28 09:58:08;;;;;;;5.60;3.50;;;;;;;1.48;75.87;100458.45;105250;1264;98809;-79
2023/03/28 10:01:28;;;;;;;5.30;3.90;;;;;;;1.55;75.09;100467.68;105362;1264;98810;-78
2023/03/28 10:04:35;;;;;;;5.80;4.00;;;;;;;1.60;74.91;100472.73;105511;1267;98505;-78
2023/03/28 10:07:42;;;;;;;6.80;3.10;;;;;;;1.55;73.84;100480.67;105460;1268;101358;-78
2023/03/28 10:10:39;;;;;;;4.70;3.10;;;;;;;1.53;72.97;100490.33;105298;1270;100337;-78
2023/03/28 10:13:34;;;;;;;3.50;2.50;;;;;;;1.52;71.12;100494.30;105553;1268;98842;-79
2023/03/28 10:16:29;;;;;;;3.50;2.50;;;;;;;1.57;70.95;100497.96;105420;1270;97974;-77
2023/03/28 10:19:23;;;;;;;5.50;3.20;;;;;;;1.69;71.32;100498.34;105286;1264;97966;-78
2023/03/28 10:22:33;;;;;;;5.10;2.90;;;;;;;1.79;70.10;100506.59;105491;1264;102429;-79
2023/03/28 10:25:41;;;;;;;3.90;3.20;;;;;;;1.76;69.17;100512.16;105279;1263;99105;-78
2023/03/28 10:28:34;;;;;;;3.30;2.70;;;;;;;1.73;69.06;100520.83;105448;1270;98591;-78
2023/03/28 10:31:30;;;;;;;2.20;2.00;;;;;;;1.78;68.36;100535.55;105360;1264;98002;-79
2023/03/28 10:34:58;;;;;;;5.60;2.40;;;;;;;1.78;66.47;100542.75;105101;1264;99456;-79
2023/03/28 10:37:54;;;;;;;2.50;1.70;;;;;;;1.86;66.42;100536.23;105649;1265;102700;-80
2023/03/28 10:41:06;;;;;;;3.20;1.80;;;;;;;1.96;65.28;100546.80;105647;1269;141135;-80
2023/03/28 10:44:31;;;;;;;4.70;2.20;;;;;;;2.07;65.57;100542.67;105598;1267;98026;-82
2023/03/28 10:47:21;;;;;;;3.20;2.00;;;;;;;2.22;66.30;100543.58;105597;1264;98553;-79
2023/03/28 10:50:27;;;;;;;3.30;1.90;;;;;;;2.40;65.59;100548.35;105820;1268;97894;-80
2023/03/28 10:53:40;;;;;;;2.40;2.10;;;;;;;2.39;64.81;100550.36;105304;1264;101344;-78
2023/03/28 10:56:40;;;;;;;3.00;2.10;;;;;;;2.26;64.59;100555.61;105502;1264;100157;-80
2023/03/28 10:59:36;;;;;;;4.40;1.80;;;;;;;2.18;64.26;100559.44;105171;1265;97908;-78
2023/03/28 11:02:45;;;;;;;1.80;1.40;;;;;;;2.11;63.33;100569.46;105576;1264;97804;-78
2023/03/28 11:05:55;;;;;;;4.20;1.70;;;;;;;1.98;62.11;100569.52;105724;1265;98515;-78
2023/03/28 11:09:00;;;;;;;3.80;1.30;;;;;;;1.95;61.69;100573.52;105349;1263;101532;-79
2023/03/28 11:12:05;;;;;;;1.90;1.40;;;;;;;1.97;60.95;100573.80;105382;1263;99429;-78
2023/03/28 11:15:04;;;;;;;2.80;1.80;;;;;;;2.04;60.60;100572.69;105217;1267;97983;-78
2023/03/28 11:18:12;;;;;;;2.70;1.80;;;;;;;2.09;60.50;100577.89;105488;1263;97983;-78
2023/03/28 11:21:13;;;;;;;3.10;1.90;;;;;;;2.05;60.45;100583.73;105548;1264;98405;-78
2023/03/28 11:24:25;;;;;;;4.50;2.00;;;;;;;2.05;60.36;100586.70;105392;1267;101379;-80
2023/03/28 11:27:25;;;;;;;3.00;1.60;;;;;;;2.06;60.02;100594.55;105571;1264;99211;-80
2023/03/28 11:30:23;;;;;;;3.30;1.40;;;;;;;2.18;60.48;100590.46;105412;1263;98063;-81
2023/03/28 11:33:24;;;;;;;4.70;1.70;;;;;;;2.49;60.43;100601.34;107078;1264;98016;-79
2023/03/28 11:36:47;;;;;;;3.60;1.80;;;;;;;2.49;58.13;100605.55;106075;1264;98423;-79
2023/03/28 11:39:56;;;;;;;2.50;1.60;;;;;;;2.24;57.25;100605.98;105556;1264;101379;-80
2023/03/28 11:43:03;;;;;;;2.60;1.90;;;;;;;2.06;57.02;100607.88;105673;1264;100361;-78
2023/03/28 11:45:56;;;;;;;1.60;1.40;;;;;;;1.99;57.96;100609.78;105102;1268;98551;-77
2023/03/28 11:48:55;;;;;;;2.50;1.80;;;;;;;2.04;57.73;100607.59;104989;1264;97980;-79
2023/03/28 11:52:04;;;;;;;4.20;1.30;;;;;;;2.23;57.87;100607.29;104972;1270;98499;-78
2023/03/28 11:55:22;;;;;;;2.30;1.90;;;;;;;2.56;57.28;100611.28;105286;1266;102585;-78
2023/03/28 11:58:20;;;;;;;3.70;1.70;;;;;;;2.62;56.79;100615.11;105423;1265;99093;-78
2023/03/28 12:01:27;;;;;;;2.70;1.90;;;;;;;2.53;55.63;100626.36;105308;1264;98049;-79
2023/03/28 12:04:41;;;;;;;3.80;1.30;;;;;;;2.34;54.36;100634.66;105540;1263;98070;-77
2023/03/28 12:07:42;;;;;;;5.20;1.60;;;;;;;2.23;54.09;100641.11;105471;1263;99638;-78
2023/03/28 12:11:26;;;;;;;2.70;1.60;;;;;;;2.21;54.74;100642.88;105426;1268;102264;-78
2023/03/28 12:14:38;;;;;;;2.20;1.60;;;;;;;2.26;54.63;100641.95;105079;1267;100716;-78
2023/03/28 12:17:53;;;;;;;2.30;1.50;;;;;;;2.30;54.54;100646.34;104916;1264;98492;-78
2023/03/28 12:20:55;;;;;;;2.10;1.60;;;;;;;2.38;55.79;100647.06;105240;1272;98491;-77
2023/03/28 12:24:12;;;;;;;3.60;1.90;;;;;;;2.35;55.30;100659.47;105385;1268;98400;-78
2023/03/28 12:27:24;;;;;;;2.80;1.60;;;;;;;2.20;55.42;100662.88;105315;1264;102608;-78
2023/03/28 12:30:21;;;;;;;3.40;2.20;;;;;;;2.16;55.98;100669.73;105409;1265;99835;-77
2023/03/28 12:33:47;;;;;;;2.40;1.80;;;;;;;2.12;55.74;100672.06;105078;1265;97930;-77
2023/03/28 12:36:53;;;;;;;1.60;1.20;;;;;;;2.12;56.19;100673.44;105164;1264;97967;-79
2023/03/28 12:39:49;;;;;;;2.40;1.70;;;;;;;2.25;57.03;100671.11;105068;1268;98422;-78
2023/03/28 12:42:42;;;;;;;1.50;1.40;;;;;;;2.42;57.38;100670.15;105475;1267;103136;-77
2023/03/28 12:45:30;;;;;;;3.40;2.50;;;;;;;2.49;57.50;100682.55;105805;1262;100421;-77
2023/03/28 12:48:53;;;;;;;2.50;2.30;;;;;;;2.48;58.27;100687.04;105005;1267;98008;-76
2023/03/28 12:51:50;;;;;;;3.40;1.80;;;;;;;2.35;59.31;100696.85;105736;1270;98154;-78
2023/03/28 12:54:54;;;;;;;4.20;1.90;;;;;;;2.08;59.92;100700.61;105071;1268;98636;-78
2023/03/28 12:57:43;;;;;;;3.10;1.90;;;;;;;1.87;60.74;100699.73;105244;1264;101350;-78
2023/03/28 13:01:04;;;;;;;2.90;1.30;;;;;;;1.86;60.57;100700.38;105043;1270;99240;-79
2023/03/28 13:04:20;;;;;;;3.30;2.30;;;;;;;1.99;60.50;100701.69;105461;1263;98448;-81
2023/03/28 13:07:40;;;;;;;1.90;1.70;;;;;;;2.22;60.16;100696.15;105299;1268;99256;-79
2023/03/28 13:10:28;;;;;;;;;;;;;;;2.22;59.66;100699.16;106788;1264;98056;-79
2023/03/28 13:13:39;;;;;;;2.70;1.90;;;;;;;2.18;59.40;100703.56;105349;1268;101389;-79
2023/03/28 13:16:46;;;;;;;2.60;1.60;;;;;;;2.06;59.15;100726.29;105179;1263;100770;-77
2023/03/28 13:20:06;;;;;;;3.10;1.70;;;;;;;1.96;60.12;100732.23;105080;1264;98075;-77